ENVR/VRY METAR and TAF weather

Enter ICAO airport designator
Station Type Date Time Source
ENVR METAR 2018/07/20 13:50 UTC NOAA

ENVR 201350Z 36013KT CAVOK 14/10 Q1015


Station Type Date Time Source
ENVR Decoded METAR 2018/07/20 13:50 UTC NOAA

Station name not available
Jul 20, 2018 - 09:50 AM EDT / 2018.07.20 1350 UTC
Wind: from the N (360 degrees) at 15 MPH (13 KT):0
Visibility: greater than 7 mile(s):0
Temperature: 57 F (14 C)
Dew Point: 50 F (10 C)
Relative Humidity: 76%
Pressure (altimeter): 29.97 in. Hg (1015 hPa)
ob: ENVR 201350Z 36013KT CAVOK 14/10 Q1015
cycle: 14

Station Type Date Time Source
ENVR TAF UTC NOAA

Error!


Example: see airport list